Braunton, United Kingdom
Current Conditions -  °F | °C
As of 2:50 AM on Friday 28 Nov 2014 (Local Time) from EGDX Reporting Station
Broken Clouds Broken Clouds  
Wind Chill: 10°   Ceiling: 1100
Heat Index: 10°   Visibility: 6mi
Dew Point:   Wind: 14mph
Humidity: 94%   Direction: 70°ENE
Pressure: 29.47"   Gusts: NA
Location:  51.11°N, 4.16°W
Report Text: EGDX 280250Z AUTO 07012KT 9999 FEW007/// BKN011/// 10/09 Q0998
Loading
Personal Weather Stations






























Interactive Weather Map New forecast layout! Learn more

10-Day Weather Forecast

Advertisements
Track Severe Weather on mobile